Terminal Aerodrome Forecast
Issued by NWS Jacksonville, FL

Home | Current Version | Previous Version | Text Only | Print | Product List | Glossary On
Versions: 1 2 3 4 5 6 7 8 9 10 11 12 13 14 15 16 17 18 19 20 21 22 23
000
FTUS42 KJAX 241120
TAFJAX
TAF
KJAX 241120Z 2412/2512 00000KT 6SM BR SCT010
     FM241400 17006KT P6SM FEW015
     FM241800 14011KT P6SM BKN040
     FM250100 16005KT P6SM SCT040 BKN080=

USA.gov is the U.S. government's official web portal to all federal, state and local government web resources and services.